Time;durP1;ratioP1;P1;durP2;ratioP2;P2;SDS_P1;SDS_P2;PMS_P1;PMS_P2;Temp;Humidity;BMP_temperature;BMP_pressure;BME280_temperature;BME280_humidity;BME280_pressure;Samples;Min_cycle;Max_cycle;Signal;HPM_P1;HPM_P2
2022/08/21 00:01:10;;;;;;;8.95;5.10;;;;;;;18.47;72.81;100022.34;5036434;28;20053;-84
2022/08/21 00:03:35;;;;;;;10.15;5.43;;;;;;;18.41;73.04;100020.81;5036657;28;20040;-84
2022/08/21 00:06:00;;;;;;;10.60;5.55;;;;;;;18.37;73.68;100019.81;5018451;28;20041;-78
2022/08/21 00:08:26;;;;;;;12.43;6.30;;;;;;;18.38;73.71;100021.47;5035153;28;20411;-78
2022/08/21 00:10:51;;;;;;;13.00;6.05;;;;;;;18.33;73.81;100016.84;5054069;28;20047;-82
2022/08/21 00:13:19;;;;;;;14.87;7.10;;;;;;;18.45;73.56;100010.78;5055752;28;20041;-82
2022/08/21 00:15:45;;;;;;;18.42;6.18;;;;;;;18.50;72.98;100015.38;5055594;28;20264;-82
2022/08/21 00:18:10;;;;;;;10.15;4.32;;;;;;;18.60;72.58;100006.03;5055151;28;20037;-82
2022/08/21 00:20:37;;;;;;;11.65;5.80;;;;;;;18.62;70.80;99995.50;5042959;28;20056;-85
2022/08/21 00:23:03;;;;;;;11.45;5.70;;;;;;;18.64;71.87;100001.50;5056385;28;20037;-86
2022/08/21 00:25:28;;;;;;;9.73;5.13;;;;;;;18.57;72.69;99998.38;5056400;28;20072;-86
2022/08/21 00:27:55;;;;;;;9.40;5.45;;;;;;;18.54;72.49;100005.34;5056414;28;20069;-86
2022/08/21 00:30:22;;;;;;;11.10;5.10;;;;;;;18.37;72.91;100003.25;5037752;28;20044;-86
2022/08/21 00:32:47;;;;;;;9.75;5.63;;;;;;;18.40;73.59;100002.63;5055823;28;20037;-86
2022/08/21 00:35:16;;;;;;;13.93;5.75;;;;;;;18.30;72.76;99989.91;5055490;28;20041;-86
2022/08/21 00:37:42;;;;;;;10.85;5.00;;;;;;;18.26;73.10;99989.72;5055777;28;20067;-83
2022/08/21 00:40:12;;;;;;;27.65;5.80;;;;;;;18.16;72.91;99987.16;5055134;28;20112;-82
2022/08/21 00:42:38;;;;;;;10.43;6.07;;;;;;;18.09;73.61;99993.91;5037938;28;20028;-82
2022/08/21 00:45:06;;;;;;;12.13;5.30;;;;;;;18.03;73.40;99986.88;5055569;28;20468;-82
2022/08/21 00:47:32;;;;;;;11.75;5.35;;;;;;;17.99;73.87;99985.88;5059237;28;20054;-82
2022/08/21 00:49:57;;;;;;;16.60;5.13;;;;;;;18.00;74.26;99986.69;5059223;28;20106;-82
2022/08/21 00:52:28;;;;;;;11.30;4.88;;;;;;;17.96;74.06;99983.72;5053012;28;20041;-77
2022/08/21 00:54:57;;;;;;;15.80;6.18;;;;;;;17.97;74.64;99982.59;5051805;28;20040;-78
2022/08/21 00:57:28;;;;;;;13.35;5.35;;;;;;;17.97;74.07;99985.34;5052349;28;20037;-78
2022/08/21 00:59:58;;;;;;;10.40;5.82;;;;;;;17.94;74.42;99989.53;5051046;28;20059;-77
2022/08/21 01:02:24;;;;;;;13.32;5.38;;;;;;;17.96;75.23;99994.75;5055592;28;20033;-86
2022/08/21 01:04:49;;;;;;;10.02;5.70;;;;;;;17.97;75.12;99988.13;5055490;28;20028;-86
2022/08/21 01:07:16;;;;;;;11.23;5.35;;;;;;;17.95;75.40;99995.88;5053021;28;20041;-78
2022/08/21 01:09:42;;;;;;;13.75;7.38;;;;;;;18.07;75.22;99995.34;5051732;28;20052;-78
2022/08/21 01:12:09;;;;;;;13.80;5.40;;;;;;;18.08;75.14;99994.22;5054524;28;20036;-82
2022/08/21 01:14:35;;;;;;;7.15;4.35;;;;;;;18.14;75.31;99994.94;5054587;28;20037;-82
2022/08/21 01:17:03;;;;;;;10.52;5.30;;;;;;;18.12;75.25;99988.91;5054171;28;20033;-79
2022/08/21 01:19:28;;;;;;;15.00;7.18;;;;;;;18.07;75.78;99995.34;5043363;28;20669;-80
2022/08/21 01:21:54;;;;;;;13.98;6.22;;;;;;;18.16;75.25;99984.41;5031359;28;20041;-77
2022/08/21 01:24:21;;;;;;;10.52;5.72;;;;;;;18.23;75.06;99989.50;5031495;28;20307;-76
2022/08/21 01:26:47;;;;;;;11.07;5.15;;;;;;;18.27;74.86;99985.00;5033260;28;20444;-83
2022/08/21 01:29:34;;;;;;;17.17;5.28;;;;;;;18.28;74.38;99990.22;5042533;28;20119;-82
2022/08/21 01:32:06;;;;;;;13.35;4.55;;;;;;;18.23;74.63;99984.81;5054624;28;20126;-82
2022/08/21 01:34:33;;;;;;;12.98;5.53;;;;;;;18.23;74.89;99990.31;5036383;28;20566;-82
2022/08/21 01:36:59;;;;;;;17.35;5.25;;;;;;;18.26;74.56;99988.88;5035013;28;20033;-80
2022/08/21 01:39:24;;;;;;;11.80;6.10;;;;;;;18.27;74.94;99991.34;5051217;28;20044;-79
2022/08/21 01:41:49;;;;;;;9.75;4.90;;;;;;;18.22;74.15;99994.22;5034303;28;20636;-80
2022/08/21 01:44:15;;;;;;;17.23;5.65;;;;;;;18.23;74.14;99984.81;5052546;28;20040;-80
2022/08/21 01:46:40;;;;;;;16.02;5.72;;;;;;;18.18;74.27;99987.69;5054277;28;20083;-86
2022/08/21 01:49:06;;;;;;;12.15;4.30;;;;;;;18.02;74.60;99978.91;5055016;28;20045;-87
2022/08/21 01:51:32;;;;;;;13.40;5.45;;;;;;;17.90;75.46;99982.22;5045502;28;20134;-79
2022/08/21 01:53:57;;;;;;;9.55;5.10;;;;;;;17.78;76.05;99974.44;5048896;28;20041;-80
2022/08/21 01:56:24;;;;;;;10.18;4.57;;;;;;;17.87;76.07;99988.34;5051849;28;20056;-79
2022/08/21 01:58:49;;;;;;;10.55;5.65;;;;;;;17.79;75.96;99982.44;5051706;28;20106;-80
2022/08/21 02:01:15;;;;;;;16.25;5.95;;;;;;;17.65;75.11;99976.13;5053623;28;20063;-87
2022/08/21 02:03:41;;;;;;;10.43;4.85;;;;;;;17.52;75.94;99975.81;5054679;28;20049;-86
2022/08/21 02:06:07;;;;;;;11.07;5.43;;;;;;;17.45;76.79;99981.72;5053882;28;20481;-80
2022/08/21 02:08:32;;;;;;;9.38;5.28;;;;;;;17.38;77.26;99978.56;5032708;28;20120;-79
2022/08/21 02:10:58;;;;;;;13.35;6.18;;;;;;;17.33;77.19;99982.22;5034749;28;20399;-91
2022/08/21 02:13:24;;;;;;;14.50;6.90;;;;;;;17.32;77.30;99975.09;5034454;28;20041;-91
2022/08/21 02:15:49;;;;;;;18.52;7.88;;;;;;;17.25;78.21;99975.50;5023200;28;20124;-82
2022/08/21 02:18:14;;;;;;;13.20;7.83;;;;;;;17.22;77.47;99967.03;5062044;28;20123;-82
2022/08/21 02:20:44;;;;;;;11.90;6.53;;;;;;;17.14;78.05;99968.56;5053276;28;20655;-82
2022/08/21 02:23:10;;;;;;;13.32;6.20;;;;;;;17.06;78.42;99970.06;5052907;28;20686;-81
2022/08/21 02:25:36;;;;;;;11.20;6.38;;;;;;;16.95;78.13;99961.16;5052874;28;20455;-84
2022/08/21 02:28:06;;;;;;;17.65;7.45;;;;;;;16.86;78.66;99972.03;5053885;28;20669;-84
2022/08/21 02:30:34;;;;;;;23.48;7.20;;;;;;;16.87;78.71;99967.34;5037116;28;20048;-79
2022/08/21 02:33:00;;;;;;;14.82;6.60;;;;;;;16.70;78.73;99971.47;5013777;28;20199;-79
2022/08/21 02:35:26;;;;;;;12.18;5.85;;;;;;;16.83;79.05;99963.56;5031457;28;20037;-84
2022/08/21 02:37:57;;;;;;;19.13;6.28;;;;;;;16.86;78.15;99966.53;5016486;28;20037;-84
2022/08/21 02:40:27;;;;;;;17.05;6.68;;;;;;;16.69;78.65;99965.19;5050364;28;20047;-79
2022/08/21 02:42:53;;;;;;;14.88;6.07;;;;;;;16.65;78.96;99966.91;5051524;28;20484;-79
2022/08/21 02:45:19;;;;;;;11.20;6.65;;;;;;;16.59;79.12;99964.53;5052503;28;20036;-79
2022/08/21 02:47:52;;;;;;;9.63;6.70;;;;;;;16.65;79.13;99961.41;5051643;28;20053;-84
2022/08/21 02:50:23;;;;;;;14.15;7.18;;;;;;;16.62;78.65;99959.22;5048561;28;20549;-84
2022/08/21 02:52:49;;;;;;;18.58;8.23;;;;;;;16.62;78.72;99970.25;5035889;28;20075;-77
2022/08/21 02:55:14;;;;;;;13.73;6.82;;;;;;;16.54;79.56;99968.16;5050143;28;20076;-78
2022/08/21 02:57:40;;;;;;;15.23;6.57;;;;;;;16.63;78.93;99966.38;5049609;28;20514;-80
2022/08/21 03:00:07;;;;;;;17.92;7.03;;;;;;;16.62;79.03;99970.25;5038505;28;20033;-79
2022/08/21 03:02:32;;;;;;;13.50;6.72;;;;;;;16.68;79.16;99969.03;5031313;28;20037;-79
2022/08/21 03:04:57;;;;;;;15.07;7.15;;;;;;;16.65;79.37;99969.66;5031271;28;20048;-80
2022/08/21 03:07:22;;;;;;;12.18;6.25;;;;;;;16.78;79.29;99964.50;5031573;28;20543;-79
2022/08/21 03:09:48;;;;;;;21.05;7.65;;;;;;;16.84;78.95;99966.00;5042139;28;20480;-77
2022/08/21 03:12:13;;;;;;;11.90;6.57;;;;;;;16.88;79.32;99961.53;5049510;28;20041;-76
2022/08/21 03:14:38;;;;;;;11.40;6.78;;;;;;;16.75;78.81;99965.09;5051130;28;20033;-79
2022/08/21 03:17:04;;;;;;;12.18;9.23;;;;;;;16.76;79.04;99958.47;5050790;28;20059;-79
2022/08/21 03:19:30;;;;;;;19.58;7.43;;;;;;;16.73;79.63;99964.56;5061035;28;20677;-86
2022/08/21 03:21:55;;;;;;;11.40;6.13;;;;;;;16.78;79.43;99956.25;5073753;28;20051;-86
2022/08/21 03:24:20;;;;;;;12.20;6.72;;;;;;;16.75;78.89;99954.91;5073106;28;20360;-82
2022/08/21 03:26:45;;;;;;;11.57;5.90;;;;;;;16.65;78.99;99955.91;5054199;28;20036;-81
2022/08/21 03:29:11;;;;;;;12.98;7.22;;;;;;;16.68;79.18;99948.94;5060775;28;20045;-77
2022/08/21 03:31:36;;;;;;;11.03;7.00;;;;;;;16.59;78.95;99953.50;5049389;28;20073;-77
2022/08/21 03:34:01;;;;;;;14.00;6.90;;;;;;;16.48;78.92;99950.09;5049531;28;20290;-78
2022/08/21 03:36:27;;;;;;;10.47;7.30;;;;;;;16.51;78.74;99952.28;5031766;28;20276;-78
2022/08/21 03:38:52;;;;;;;13.05;6.30;;;;;;;16.42;79.27;99954.88;5046777;28;20624;-77
2022/08/21 03:41:17;;;;;;;13.60;7.55;;;;;;;16.41;78.93;99947.75;5049739;28;20502;-78
2022/08/21 03:43:42;;;;;;;15.05;8.40;;;;;;;16.33;79.68;99946.50;5049724;28;20040;-80
2022/08/21 03:46:08;;;;;;;11.80;6.88;;;;;;;16.38;79.25;99949.16;5049828;28;20391;-78
2022/08/21 03:48:35;;;;;;;14.38;7.25;;;;;;;16.40;79.36;99952.44;5050153;28;20037;-84
2022/08/21 03:51:01;;;;;;;13.52;8.55;;;;;;;16.45;79.09;99948.78;5054390;28;20044;-84
2022/08/21 03:53:27;;;;;;;24.30;7.47;;;;;;;16.32;79.25;99950.34;5056514;28;20033;-81
2022/08/21 03:55:53;;;;;;;11.32;6.30;;;;;;;16.33;79.62;99952.00;5055907;28;20041;-82
2022/08/21 03:58:22;;;;;;;12.90;7.53;;;;;;;16.30;79.55;99958.91;5055691;28;20488;-84
2022/08/21 04:00:50;;;;;;;12.48;6.28;;;;;;;16.24;79.73;99954.59;5055797;28;20132;-83
2022/08/21 04:03:16;;;;;;;11.95;6.72;;;;;;;16.17;80.33;99954.97;5055975;28;20033;-86
2022/08/21 04:05:42;;;;;;;11.68;6.95;;;;;;;16.21;79.71;99956.00;5056105;28;20127;-86
2022/08/21 04:08:07;;;;;;;14.48;7.53;;;;;;;16.22;79.90;99954.91;5056529;28;20056;-84
2022/08/21 04:10:36;;;;;;;16.83;8.55;;;;;;;16.19;80.35;99952.75;5055488;28;20041;-83
2022/08/21 04:13:02;;;;;;;15.18;7.55;;;;;;;16.33;80.19;99963.00;5056231;28;20060;-80
2022/08/21 04:15:28;;;;;;;12.85;7.63;;;;;;;16.42;80.08;99966.72;5053975;28;20037;-79
2022/08/21 04:17:54;;;;;;;16.05;8.18;;;;;;;16.38;79.57;99965.66;5046248;28;20041;-78
2022/08/21 04:20:21;;;;;;;12.52;7.57;;;;;;;16.32;79.07;99959.44;5048960;28;20049;-78
2022/08/21 04:22:47;;;;;;;17.00;7.55;;;;;;;16.22;80.04;99963.16;5035634;28;20094;-79
2022/08/21 04:25:14;;;;;;;13.13;7.15;;;;;;;16.17;80.24;99968.72;5035572;28;20052;-78
2022/08/21 04:27:42;;;;;;;10.93;6.57;;;;;;;16.23;80.22;99958.50;5053326;28;20029;-78
2022/08/21 04:30:09;;;;;;;11.18;6.45;;;;;;;16.26;79.96;99962.56;5050999;28;20048;-78
2022/08/21 04:32:38;;;;;;;14.32;7.32;;;;;;;16.21;80.04;99960.72;5052223;28;20480;-79
2022/08/21 04:35:09;;;;;;;10.82;6.15;;;;;;;16.19;80.24;99965.69;5051544;28;20037;-77
2022/08/21 04:37:35;;;;;;;15.70;8.07;;;;;;;16.07;80.71;99966.13;5052307;28;20037;-82
2022/08/21 04:40:00;;;;;;;12.48;6.93;;;;;;;16.27;80.33;99969.72;5043756;28;20052;-83
2022/08/21 04:42:27;;;;;;;12.35;6.93;;;;;;;16.33;79.82;99965.75;5035591;28;20052;-83
2022/08/21 04:44:53;;;;;;;18.27;8.07;;;;;;;16.29;79.35;99970.22;5036503;28;20033;-83
2022/08/21 04:47:19;;;;;;;13.90;8.05;;;;;;;16.21;80.07;99974.47;5043068;28;20926;-83
2022/08/21 04:49:45;;;;;;;13.80;8.60;;;;;;;16.27;80.38;99969.72;5050734;28;20183;-77
2022/08/21 04:52:13;;;;;;;15.20;8.32;;;;;;;16.28;80.28;99968.56;5051706;28;20055;-77
2022/08/21 04:54:39;;;;;;;11.05;5.95;;;;;;;16.27;80.03;99970.50;5054893;28;20033;-81
2022/08/21 04:57:09;;;;;;;14.02;6.82;;;;;;;16.28;80.02;99965.81;5053009;28;20033;-82
2022/08/21 04:59:44;;;;;;;11.52;6.88;;;;;;;16.33;80.20;99974.03;5051818;28;20083;-79
2022/08/21 05:02:10;;;;;;;16.92;6.80;;;;;;;16.40;79.95;99970.88;5053399;28;20044;-80
2022/08/21 05:04:40;;;;;;;14.27;7.45;;;;;;;16.39;80.54;99969.25;5054600;28;20044;-86
2022/08/21 05:07:10;;;;;;;11.25;6.07;;;;;;;16.33;80.52;99968.50;5055289;28;20123;-86
2022/08/21 05:09:38;;;;;;;12.98;7.30;;;;;;;16.37;80.72;99969.56;5052229;28;20044;-79
2022/08/21 05:12:03;;;;;;;13.25;6.43;;;;;;;16.45;80.99;99974.34;5053181;28;20040;-79
2022/08/21 05:14:29;;;;;;;14.20;6.70;;;;;;;16.58;80.67;99974.72;5055350;28;20033;-86
2022/08/21 05:16:54;;;;;;;10.35;6.20;;;;;;;16.72;80.32;99984.97;5055387;28;20131;-86
2022/08/21 05:19:19;;;;;;;12.47;6.60;;;;;;;16.82;79.77;99984.78;5059500;28;20057;-79
2022/08/21 05:21:47;;;;;;;10.27;5.75;;;;;;;16.97;78.85;99980.13;5051333;28;20250;-80
2022/08/21 05:24:13;;;;;;;13.85;7.55;;;;;;;17.16;77.75;99977.34;5032537;28;20056;-78
2022/08/21 05:26:38;;;;;;;13.75;6.85;;;;;;;17.30;76.61;99977.34;5050647;28;20052;-78
2022/08/21 05:29:05;;;;;;;12.50;5.65;;;;;;;17.38;76.86;99984.06;5048541;28;20044;-77
2022/08/21 05:31:31;;;;;;;13.13;6.63;;;;;;;17.45;76.09;99972.66;5050426;28;20059;-77
2022/08/21 05:33:56;;;;;;;11.10;6.32;;;;;;;17.56;75.93;99976.00;5050389;28;20033;-78
2022/08/21 05:36:22;;;;;;;14.27;6.75;;;;;;;17.60;76.09;99982.53;5051271;28;20065;-79
2022/08/21 05:38:47;;;;;;;9.40;5.80;;;;;;;17.66;75.88;99983.25;5051040;28;20063;-85
2022/08/21 05:41:13;;;;;;;11.52;6.90;;;;;;;17.76;75.37;99977.53;5055050;28;20048;-85
2022/08/21 05:43:38;;;;;;;12.25;5.50;;;;;;;17.83;74.19;99986.22;5053383;28;20037;-76
2022/08/21 05:46:05;;;;;;;14.18;6.20;;;;;;;17.96;72.96;99975.44;5050154;28;20048;-76
2022/08/21 05:48:31;;;;;;;16.73;6.47;;;;;;;18.10;72.62;99980.94;5058873;28;20203;-79
2022/08/21 05:50:57;;;;;;;12.95;6.40;;;;;;;18.17;71.71;99986.03;5051096;28;20064;-79
2022/08/21 05:53:24;;;;;;;11.68;5.45;;;;;;;18.24;72.18;99994.72;5052619;28;20064;-81
2022/08/21 05:55:50;;;;;;;9.50;6.32;;;;;;;18.16;73.18;99984.41;5053656;28;20133;-82
2022/08/21 05:58:20;;;;;;;12.90;7.65;;;;;;;17.99;73.75;99991.38;5052528;28;20421;-78
2022/08/21 06:00:47;;;;;;;14.23;7.25;;;;;;;17.79;73.49;99990.72;5048624;28;20045;-78
2022/08/21 06:03:27;;;;;;;15.00;5.75;;;;;;;17.84;73.89;99982.31;5050875;28;20036;-79
2022/08/21 06:05:54;;;;;;;9.43;6.63;;;;;;;17.82;73.70;99987.31;5051571;28;20147;-79
2022/08/21 06:08:21;;;;;;;11.77;6.75;;;;;;;17.96;72.96;99981.78;5052686;28;20098;-86
2022/08/21 06:10:49;;;;;;;8.38;5.25;;;;;;;17.81;72.97;99985.69;5054062;28;20045;-86
2022/08/21 06:13:16;;;;;;;14.32;7.75;;;;;;;17.89;73.12;99986.09;5053449;28;20184;-78
2022/08/21 06:15:42;;;;;;;17.90;6.57;;;;;;;18.05;72.78;99989.31;5049927;28;20056;-78
2022/08/21 06:18:07;;;;;;;12.85;6.80;;;;;;;17.89;73.66;99992.44;5059507;28;20557;-79
2022/08/21 06:20:33;;;;;;;14.20;6.82;;;;;;;18.09;72.99;99985.63;5048495;28;20440;-79
2022/08/21 06:22:59;;;;;;;9.93;5.93;;;;;;;18.06;72.86;99986.25;5034270;28;20049;-86
2022/08/21 06:25:25;;;;;;;12.88;6.35;;;;;;;18.03;73.38;99981.38;5053642;28;20491;-86
2022/08/21 06:27:50;;;;;;;12.55;6.00;;;;;;;18.06;73.18;99986.25;5053654;28;20052;-81
2022/08/21 06:30:16;;;;;;;14.15;6.88;;;;;;;18.19;73.12;99989.31;5029796;28;20036;-82
2022/08/21 06:32:41;;;;;;;9.68;6.32;;;;;;;18.27;72.51;99988.56;5052555;28;20051;-86
2022/08/21 06:35:07;;;;;;;11.88;7.45;;;;;;;18.30;72.36;99985.22;5052506;28;20037;-86
2022/08/21 06:37:33;;;;;;;15.70;7.30;;;;;;;18.16;73.13;99987.97;5054083;28;20035;-87
2022/08/21 06:39:58;;;;;;;13.00;8.45;;;;;;;18.20;73.08;99988.19;5052484;28;20044;-83
2022/08/21 06:42:24;;;;;;;12.85;7.88;;;;;;;18.43;72.99;99985.44;5053652;28;20102;-84
2022/08/21 06:44:49;;;;;;;13.50;8.25;;;;;;;18.48;72.68;99982.56;5051084;28;20041;-80
2022/08/21 06:47:15;;;;;;;17.13;8.55;;;;;;;18.67;71.68;99976.06;5050116;28;20115;-80
2022/08/21 06:49:40;;;;;;;20.98;8.85;;;;;;;18.66;72.25;99986.28;5049399;28;20175;-80
2022/08/21 06:52:11;;;;;;;21.30;10.07;;;;;;;18.49;72.14;99984.19;5050514;28;20037;-80
2022/08/21 06:54:37;;;;;;;19.60;9.48;;;;;;;18.40;72.80;99984.16;5032276;28;20048;-79
2022/08/21 06:57:02;;;;;;;15.27;10.25;;;;;;;18.54;72.08;99986.84;5049217;28;20033;-79
2022/08/21 06:59:28;;;;;;;22.30;9.48;;;;;;;18.41;72.45;99987.69;5047665;28;20037;-77
2022/08/21 07:01:53;;;;;;;14.02;9.90;;;;;;;18.60;71.99;99992.22;5048955;28;20086;-77
2022/08/21 07:04:19;;;;;;;25.23;10.60;;;;;;;18.59;72.10;99985.09;5051625;28;20469;-83
2022/08/21 07:06:45;;;;;;;16.23;10.30;;;;;;;18.55;71.42;99982.94;5053087;28;20247;-83
2022/08/21 07:09:10;;;;;;;21.90;11.73;;;;;;;18.49;72.11;99983.41;5046549;28;20123;-80
2022/08/21 07:11:37;;;;;;;25.20;10.63;;;;;;;18.70;71.51;99986.47;5030540;28;20041;-80
2022/08/21 07:14:02;;;;;;;15.85;9.77;;;;;;;18.67;71.37;99982.38;5031156;28;20037;-81
2022/08/21 07:16:28;;;;;;;18.83;9.13;;;;;;;18.83;71.33;99983.94;5031564;28;20140;-81
2022/08/21 07:18:53;;;;;;;12.07;8.65;;;;;;;18.87;70.61;99979.41;5044474;28;20040;-80
2022/08/21 07:21:19;;;;;;;25.70;10.23;;;;;;;18.76;70.46;99987.13;5050244;28;20060;-79
2022/08/21 07:23:48;;;;;;;17.58;8.60;;;;;;;18.75;70.38;99980.00;5050362;28;20041;-80
2022/08/21 07:26:16;;;;;;;19.15;10.07;;;;;;;19.05;70.06;99979.50;5051383;28;20033;-80
2022/08/21 07:28:42;;;;;;;13.60;8.07;;;;;;;19.07;69.66;99982.75;5036583;28;20459;-86
2022/08/21 07:31:09;;;;;;;17.30;9.90;;;;;;;19.11;69.50;99986.53;5054919;28;20041;-86
2022/08/21 07:33:35;;;;;;;17.05;8.95;;;;;;;19.09;69.07;99983.25;5054077;28;20118;-80
2022/08/21 07:36:01;;;;;;;18.33;9.32;;;;;;;19.06;68.62;99975.63;5036057;28;20041;-80
2022/08/21 07:38:26;;;;;;;18.02;10.40;;;;;;;18.87;69.06;99984.94;5055090;28;20090;-84
2022/08/21 07:40:55;;;;;;;19.92;11.45;;;;;;;18.99;68.96;99982.41;5058513;28;20095;-84
2022/08/21 07:43:21;;;;;;;19.52;9.43;;;;;;;18.97;68.93;99978.31;5057890;28;20112;-88
2022/08/21 07:45:49;;;;;;;19.35;10.15;;;;;;;19.10;68.98;99973.84;5057596;28;20033;-89
2022/08/21 07:48:14;;;;;;;16.35;9.27;;;;;;;19.38;68.09;99972.84;5055375;28;20674;-80
2022/08/21 07:50:40;;;;;;;16.25;10.18;;;;;;;19.30;67.93;99978.00;5053051;28;20045;-80
2022/08/21 07:53:07;;;;;;;18.15;7.88;;;;;;;19.33;65.61;99976.56;5054038;28;20094;-83
2022/08/21 07:55:32;;;;;;;17.45;8.77;;;;;;;19.19;66.59;99980.25;5056337;28;20037;-84
2022/08/21 07:57:57;;;;;;;18.95;8.90;;;;;;;19.41;66.47;99981.31;5055948;28;20033;-79
2022/08/21 08:00:28;;;;;;;11.17;6.53;;;;;;;19.52;66.36;99970.78;5051264;28;20045;-79
2022/08/21 08:02:54;;;;;;;12.65;5.72;;;;;;;19.42;65.28;99982.97;5053118;28;20033;-87
2022/08/21 08:05:24;;;;;;;11.85;5.90;;;;;;;19.52;63.70;99987.38;5056537;28;20256;-86
2022/08/21 08:07:50;;;;;;;13.57;5.57;;;;;;;19.43;63.70;99981.00;5056214;28;20041;-79
2022/08/21 08:10:16;;;;;;;7.72;3.80;;;;;;;19.47;62.73;99980.03;5038730;28;20041;-80
2022/08/21 08:12:43;;;;;;;11.90;4.28;;;;;;;19.39;62.49;99983.59;5031523;28;20037;-87
2022/08/21 08:15:13;;;;;;;13.88;4.15;;;;;;;19.48;61.65;99987.22;5036261;28;20121;-86
2022/08/21 08:17:39;;;;;;;6.88;3.20;;;;;;;19.50;60.40;99991.59;5036193;28;20068;-79
2022/08/21 08:20:09;;;;;;;12.50;3.67;;;;;;;19.65;60.72;99991.13;5046922;28;20076;-78
2022/08/21 08:22:37;;;;;;;11.40;5.47;;;;;;;19.63;60.25;99989.84;5053206;28;20041;-84
2022/08/21 08:25:04;;;;;;;11.25;3.78;;;;;;;19.60;60.40;99985.78;5055668;28;20057;-85
2022/08/21 08:27:30;;;;;;;7.13;3.25;;;;;;;19.54;60.82;99982.34;5056293;28;20625;-84
2022/08/21 08:29:55;;;;;;;8.57;3.50;;;;;;;19.70;60.64;99988.25;5054330;28;20037;-84
2022/08/21 08:32:21;;;;;;;7.30;2.85;;;;;;;19.79;60.25;99984.69;5055015;28;20056;-85
2022/08/21 08:34:48;;;;;;;11.07;3.47;;;;;;;19.77;60.65;99987.75;5055312;28;20046;-85
2022/08/21 08:37:14;;;;;;;10.00;3.75;;;;;;;19.89;60.03;99970.53;5037289;28;20059;-84
2022/08/21 08:39:40;;;;;;;17.55;5.28;;;;;;;19.90;59.68;99982.41;5051323;28;20110;-79
2022/08/21 08:42:09;;;;;;;6.78;2.70;;;;;;;19.94;59.41;99975.91;5034233;28;20041;-80
2022/08/21 08:44:34;;;;;;;8.60;3.17;;;;;;;20.01;59.57;99975.44;5037605;28;20041;-84
2022/08/21 08:47:01;;;;;;;8.30;4.10;;;;;;;20.10;59.65;99969.94;5052888;28;20504;-85
2022/08/21 08:49:29;;;;;;;5.72;2.72;;;;;;;20.28;59.18;99967.16;5037394;28;20167;-87
2022/08/21 08:52:17;;;;;;;9.25;2.90;;;;;;;20.40;58.27;99966.53;5055931;28;20473;-86
2022/08/21 08:54:49;;;;;;;8.13;3.10;;;;;;;20.56;57.59;99966.00;5053994;28;20044;-81
2022/08/21 08:57:18;;;;;;;12.27;3.35;;;;;;;20.63;58.30;99966.31;5052018;28;20037;-81
2022/08/21 08:59:47;;;;;;;7.85;2.40;;;;;;;20.76;57.67;99973.63;5050569;28;20389;-80
2022/08/21 09:02:14;;;;;;;8.27;3.35;;;;;;;20.87;56.87;99976.03;5051675;28;20076;-79
2022/08/21 09:04:41;;;;;;;12.85;3.88;;;;;;;20.94;57.07;99976.34;5051504;28;20519;-79
2022/08/21 09:07:23;;;;;;;8.98;3.28;;;;;;;21.02;56.27;99966.41;5051201;28;20056;-79
2022/08/21 09:10:10;;;;;;;6.30;2.75;;;;;;;20.99;56.46;99965.09;5054603;28;20068;-87
2022/08/21 09:13:03;;;;;;;6.18;3.05;;;;;;;21.08;55.87;99962.31;5055921;28;20033;-81
2022/08/21 09:15:56;;;;;;;8.90;3.13;;;;;;;21.09;55.85;99955.63;5053008;28;20115;-81
2022/08/21 09:18:36;;;;;;;5.70;2.15;;;;;;;21.22;56.01;99952.97;5034378;28;20043;-81
2022/08/21 09:21:13;;;;;;;7.30;2.30;;;;;;;21.29;55.81;99942.19;5033394;28;20091;-81
2022/08/21 09:24:10;;;;;;;6.05;3.17;;;;;;;21.49;55.97;99945.34;5015651;28;20044;-82
2022/08/21 09:27:01;;;;;;;5.40;2.75;;;;;;;21.68;55.67;99944.09;5033481;28;20094;-81
2022/08/21 09:29:31;;;;;;;8.15;2.92;;;;;;;21.68;55.77;99936.56;5035886;28;20040;-85
2022/08/21 09:31:56;;;;;;;9.02;2.30;;;;;;;21.81;55.53;99937.47;5054805;28;20511;-85
2022/08/21 09:34:31;;;;;;;8.55;2.33;;;;;;;21.97;54.20;99942.44;5053390;28;20120;-87
2022/08/21 09:36:57;;;;;;;8.63;3.53;;;;;;;21.83;53.08;99939.94;5055168;28;20040;-87
2022/08/21 09:39:29;;;;;;;10.07;3.63;;;;;;;21.76;53.84;99945.19;5051676;28;20037;-86
2022/08/21 09:42:04;;;;;;;4.63;2.17;;;;;;;21.77;53.15;99939.28;5055032;28;20037;-86
2022/08/21 09:44:39;;;;;;;6.78;2.55;;;;;;;21.75;53.69;99936.03;5055179;28;20048;-85
2022/08/21 09:47:05;;;;;;;10.02;3.40;;;;;;;21.83;53.89;99944.66;5055100;28;20040;-84
2022/08/21 09:49:38;;;;;;;8.52;2.25;;;;;;;21.72;54.40;99942.28;5050015;28;20407;-79
2022/08/21 09:52:15;;;;;;;7.67;2.50;;;;;;;21.68;53.84;99952.41;5051088;28;20037;-79
2022/08/21 09:54:41;;;;;;;9.35;3.03;;;;;;;21.72;53.89;99942.28;5052581;28;20708;-81
2022/08/21 09:57:38;;;;;;;5.65;2.58;;;;;;;21.80;53.52;99940.59;5052517;28;20068;-81
2022/08/21 10:00:22;;;;;;;6.45;2.40;;;;;;;21.94;53.27;99943.13;5050922;28;20052;-80
2022/08/21 10:02:47;;;;;;;8.70;2.75;;;;;;;22.06;52.92;99939.59;5034380;28;20041;-79
2022/08/21 10:05:19;;;;;;;8.67;2.57;;;;;;;22.00;52.95;99935.41;5050167;28;20032;-79
2022/08/21 10:07:44;;;;;;;11.25;3.30;;;;;;;22.36;52.71;99941.44;5050592;28;20272;-81
2022/08/21 10:10:24;;;;;;;6.47;2.70;;;;;;;22.31;52.36;99925.00;5050717;28;20462;-81
2022/08/21 10:12:58;;;;;;;10.68;2.90;;;;;;;22.35;52.58;99932.31;5052171;28;20258;-81
2022/08/21 10:15:38;;;;;;;7.80;2.70;;;;;;;22.41;51.78;99938.47;5052630;28;20369;-81
2022/08/21 10:18:22;;;;;;;8.82;2.67;;;;;;;22.42;51.12;99928.97;5060986;28;20036;-86
2022/08/21 10:20:58;;;;;;;6.00;1.85;;;;;;;22.54;52.08;99924.63;5051523;28;20045;-87
2022/08/21 10:23:54;;;;;;;6.18;1.83;;;;;;;22.70;52.39;99920.06;5052701;28;20041;-85
2022/08/21 10:26:35;;;;;;;50.50;4.72;;;;;;;22.57;50.00;99919.19;5035670;28;20136;-85
2022/08/21 10:29:31;;;;;;;5.88;1.92;;;;;;;22.60;50.25;99923.25;5053040;28;20045;-84
2022/08/21 10:32:09;;;;;;;6.40;1.70;;;;;;;22.79;49.80;99910.81;5054062;28;20040;-85
2022/08/21 10:35:15;;;;;;;4.90;2.15;;;;;;;22.91;50.01;99916.41;5052608;28;20419;-85
2022/08/21 10:38:14;;;;;;;7.28;1.70;;;;;;;22.96;49.62;99916.16;5044550;28;20044;-85
2022/08/21 10:40:49;;;;;;;10.65;2.35;;;;;;;22.92;49.82;99909.69;5052743;28;20140;-84
2022/08/21 10:43:36;;;;;;;8.45;1.77;;;;;;;23.26;48.66;99904.03;5052514;28;20033;-79
2022/08/21 10:46:23;;;;;;;10.38;1.90;;;;;;;23.39;48.61;99913.16;5050027;28;20044;-80
2022/08/21 10:49:02;;;;;;;16.48;2.55;;;;;;;23.29;48.28;99905.28;5027986;28;20072;-87
2022/08/21 10:51:55;;;;;;;10.05;2.13;;;;;;;23.32;48.12;99905.41;5054098;28;20041;-87
2022/08/21 10:54:32;;;;;;;6.25;2.10;;;;;;;23.45;47.52;99905.44;5051474;28;20476;-85
2022/08/21 10:57:03;;;;;;;5.28;2.42;;;;;;;23.42;47.86;99897.75;5052657;28;20492;-85
2022/08/21 10:59:46;;;;;;;5.63;2.22;;;;;;;23.61;47.14;99901.91;5051337;28;20043;-81
2022/08/21 11:02:25;;;;;;;8.63;2.42;;;;;;;23.55;47.90;99887.44;5057415;28;20115;-82
2022/08/21 11:05:02;;;;;;;6.05;1.63;;;;;;;23.70;46.60;99894.22;5059901;28;20723;-86
2022/08/21 11:07:27;;;;;;;6.72;2.50;;;;;;;23.70;46.52;99898.97;5060280;28;20041;-85
2022/08/21 11:09:56;;;;;;;7.53;1.90;;;;;;;23.80;46.26;99892.94;5059790;28;20103;-86
2022/08/21 11:12:33;;;;;;;5.50;1.98;;;;;;;23.92;47.08;99894.84;5042320;28;20035;-86
2022/08/21 11:15:23;;;;;;;3.30;1.20;;;;;;;23.77;47.20;99893.66;5042224;28;20037;-85
2022/08/21 11:17:56;;;;;;;11.25;1.80;;;;;;;24.09;46.19;99899.34;5025481;28;20491;-85
2022/08/21 11:20:39;;;;;;;3.92;1.52;;;;;;;24.07;46.00;99890.53;5044499;28;20113;-85
2022/08/21 11:23:21;;;;;;;5.30;1.10;;;;;;;24.11;45.46;99894.22;5039824;28;20473;-82
2022/08/21 11:25:51;;;;;;;6.15;1.13;;;;;;;24.23;44.60;99893.38;5038356;28;20052;-81
2022/08/21 11:28:24;;;;;;;4.68;1.30;;;;;;;24.29;45.24;99891.16;5038580;28;20487;-81
2022/08/21 11:31:01;;;;;;;6.35;1.17;;;;;;;24.06;42.46;99891.72;5056425;28;20056;-81
2022/08/21 11:33:53;;;;;;;4.05;1.05;;;;;;;24.00;44.15;99895.91;5058080;28;20422;-85
2022/08/21 11:36:45;;;;;;;5.00;1.20;;;;;;;24.08;43.87;99889.34;5059813;28;20040;-85